Time;durP1;ratioP1;P1;durP2;ratioP2;P2;SDS_P1;SDS_P2;PMS_P1;PMS_P2;Temp;Humidity;BMP_temperature;BMP_pressure;BME280_temperature;BME280_humidity;BME280_pressure;Samples;Min_cycle;Max_cycle;Signal;HPM_P1;HPM_P2
2023/07/22 00:01:22;;;;;;;18.05;7.93;;;20.10;99.90;;;;;;5096891;28;20028;-68
2023/07/22 00:03:47;;;;;;;15.93;7.00;;;19.90;99.90;;;;;;5096744;28;20043;-68
2023/07/22 00:06:13;;;;;;;21.08;7.25;;;19.90;99.90;;;;;;5097046;28;20028;-69
2023/07/22 00:08:39;;;;;;;26.05;7.38;;;19.90;99.90;;;;;;5096949;28;20389;-68
2023/07/22 00:11:05;;;;;;;20.67;7.13;;;19.90;99.90;;;;;;5096540;28;20377;-68
2023/07/22 00:13:32;;;;;;;13.13;6.10;;;19.90;99.90;;;;;;5096624;28;20623;-68
2023/07/22 00:15:59;;;;;;;16.42;6.72;;;19.90;99.90;;;;;;5096812;28;20043;-68
2023/07/22 00:18:27;;;;;;;16.52;6.57;;;19.80;99.90;;;;;;5096569;28;20485;-69
2023/07/22 00:20:54;;;;;;;30.48;7.25;;;19.90;99.90;;;;;;5096800;28;20024;-69
2023/07/22 00:23:20;;;;;;;21.10;7.15;;;19.80;99.90;;;;;;5096536;28;20020;-68
2023/07/22 00:25:46;;;;;;;19.73;8.27;;;19.80;99.90;;;;;;5096404;28;20032;-68
2023/07/22 00:28:13;;;;;;;15.25;7.40;;;19.80;99.90;;;;;;5096592;28;20051;-69
2023/07/22 00:30:39;;;;;;;15.10;7.15;;;19.80;99.90;;;;;;5095199;28;20035;-68
2023/07/22 00:33:05;;;;;;;14.40;6.63;;;19.80;99.90;;;;;;5095081;28;20074;-68
2023/07/22 00:35:31;;;;;;;16.00;7.53;;;19.70;99.90;;;;;;5096368;28;20040;-68
2023/07/22 00:37:58;;;;;;;15.70;5.82;;;19.70;99.90;;;;;;5096215;28;20030;-69
2023/07/22 00:40:24;;;;;;;11.93;5.28;;;19.70;99.90;;;;;;5096521;28;20112;-68
2023/07/22 00:42:50;;;;;;;13.02;5.68;;;19.60;99.90;;;;;;5096317;28;20043;-69
2023/07/22 00:45:16;;;;;;;18.17;5.55;;;19.70;99.90;;;;;;5096250;28;20020;-68
2023/07/22 00:47:44;;;;;;;13.20;5.70;;;19.60;99.90;;;;;;5096062;28;20028;-69
2023/07/22 00:50:10;;;;;;;14.52;6.00;;;19.60;99.90;;;;;;5096154;28;20500;-69
2023/07/22 00:52:37;;;;;;;14.68;6.38;;;19.60;99.90;;;;;;5095997;28;20020;-69
2023/07/22 00:55:04;;;;;;;17.23;7.20;;;19.60;99.90;;;;;;5095944;28;20044;-69
2023/07/22 00:57:31;;;;;;;23.40;11.20;;;19.60;99.90;;;;;;5094693;28;20043;-69
2023/07/22 00:59:56;;;;;;;21.75;12.20;;;19.60;99.90;;;;;;5095998;28;20447;-68
2023/07/22 01:02:23;;;;;;;26.33;14.07;;;19.60;99.90;;;;;;5095033;28;20035;-68
2023/07/22 01:04:50;;;;;;;36.10;17.77;;;19.60;99.90;;;;;;5095930;28;20076;-69
2023/07/22 01:07:16;;;;;;;36.50;18.75;;;19.50;99.90;;;;;;5095637;28;20110;-69
2023/07/22 01:09:43;;;;;;;35.85;17.52;;;19.50;99.90;;;;;;5095712;28;20059;-69
2023/07/22 01:12:10;;;;;;;33.22;16.98;;;19.50;99.90;;;;;;5095786;28;20106;-69
2023/07/22 01:14:38;;;;;;;32.10;18.48;;;19.60;99.90;;;;;;5095580;28;20548;-69
2023/07/22 01:17:05;;;;;;;36.58;20.40;;;19.60;99.90;;;;;;5094334;28;20028;-69
2023/07/22 01:19:32;;;;;;;40.50;19.73;;;19.60;99.90;;;;;;5094143;28;20070;-68
2023/07/22 01:22:01;;;;;;;39.17;19.92;;;19.70;99.90;;;;;;5094146;28;20020;-68
2023/07/22 01:24:30;;;;;;;36.40;19.75;;;19.60;99.90;;;;;;5095547;28;20093;-68
2023/07/22 01:26:56;;;;;;;35.30;18.50;;;19.60;99.90;;;;;;5095386;28;20087;-68
2023/07/22 01:29:23;;;;;;;36.55;18.40;;;19.50;99.90;;;;;;5095184;28;20047;-68
2023/07/22 01:31:52;;;;;;;40.38;20.35;;;19.50;99.90;;;;;;5095653;28;20032;-69
2023/07/22 01:34:18;;;;;;;41.35;21.20;;;19.60;99.90;;;;;;5095134;28;20461;-68
2023/07/22 01:36:48;;;;;;;39.30;21.67;;;19.70;99.90;;;;;;5095206;28;20095;-69
2023/07/22 01:39:15;;;;;;;;;;;19.80;99.90;;;;;;5095621;28;20036;-69
2023/07/22 01:41:41;;;;;;;39.30;19.85;;;19.80;99.90;;;;;;5095111;28;20369;-69
2023/07/22 01:44:08;;;;;;;38.78;21.83;;;19.70;99.90;;;;;;5095134;28;20028;-70
2023/07/22 01:46:34;;;;;;;42.35;22.48;;;19.80;99.90;;;;;;5095079;28;20034;-69
2023/07/22 01:49:01;;;;;;;37.83;20.27;;;19.70;99.90;;;;;;5094963;28;20035;-69
2023/07/22 01:51:27;;;;;;;41.83;22.13;;;19.70;99.90;;;;;;5095108;28;20028;-69
2023/07/22 01:53:56;;;;;;;39.75;21.85;;;19.80;99.90;;;;;;5095043;28;20067;-69
2023/07/22 01:56:22;;;;;;;42.30;22.98;;;19.70;99.90;;;;;;5094904;28;20020;-69
2023/07/22 01:58:48;;;;;;;40.80;22.00;;;19.70;99.90;;;;;;5093403;28;20164;-68
2023/07/22 02:01:16;;;;;;;42.80;23.90;;;19.60;99.90;;;;;;5093527;28;20071;-68
2023/07/22 02:03:42;;;;;;;48.47;25.23;;;19.70;99.90;;;;;;5093520;28;20086;-69
2023/07/22 02:06:08;;;;;;;41.70;23.63;;;19.90;99.90;;;;;;5093423;28;20415;-69
2023/07/22 02:08:36;;;;;;;47.53;23.15;;;19.90;99.90;;;;;;5093478;28;20163;-69
2023/07/22 02:11:06;;;;;;;43.42;23.33;;;19.80;99.90;;;;;;5094558;28;20036;-69
2023/07/22 02:13:34;;;;;;;44.47;22.95;;;19.80;99.90;;;;;;5093258;28;20066;-68
2023/07/22 02:16:01;;;;;;;56.42;28.85;;;19.90;99.90;;;;;;5093266;28;20036;-70
2023/07/22 02:18:27;;;;;;;71.60;34.08;;;19.90;99.90;;;;;;5094731;28;20033;-69
2023/07/22 02:20:54;;;;;;;98.13;38.38;;;19.80;99.90;;;;;;5093374;28;20062;-69
2023/07/22 02:23:20;;;;;;;88.82;41.90;;;19.80;99.90;;;;;;5094692;28;20020;-70
2023/07/22 02:25:53;;;;;;;93.82;41.00;;;19.90;99.90;;;;;;5093104;28;20118;-71
2023/07/22 02:28:24;;;;;;;98.22;41.15;;;19.90;99.90;;;;;;5094299;28;20136;-71
2023/07/22 02:30:52;;;;;;;97.32;42.28;;;19.90;99.90;;;;;;5094521;28;20050;-71
2023/07/22 02:33:19;;;;;;;110.45;46.58;;;19.60;99.90;;;;;;5093132;28;20032;-71
2023/07/22 02:35:46;;;;;;;129.07;52.30;;;19.60;99.90;;;;;;5094506;28;20100;-70
2023/07/22 02:38:14;;;;;;;131.32;53.75;;;19.70;99.90;;;;;;5093085;28;20422;-70
2023/07/22 02:40:40;;;;;;;134.80;64.00;;;19.70;99.90;;;;;;5094294;28;20025;-71
2023/07/22 02:43:06;;;;;;;132.35;62.03;;;19.70;99.90;;;;;;5094292;28;20458;-69
2023/07/22 02:45:36;;;;;;;117.25;56.85;;;19.60;99.90;;;;;;5093223;28;20030;-69
2023/07/22 02:48:03;;;;;;;97.03;50.20;;;19.50;99.90;;;;;;5093083;28;20044;-69
2023/07/22 02:50:30;;;;;;;86.25;48.08;;;19.60;99.90;;;;;;5094437;28;20362;-69
2023/07/22 02:52:55;;;;;;;62.78;33.42;;;19.50;99.90;;;;;;5093092;28;20068;-68
2023/07/22 02:55:23;;;;;;;46.08;26.88;;;19.50;99.90;;;;;;5094318;28;20550;-68
2023/07/22 02:57:49;;;;;;;43.63;23.63;;;19.50;99.90;;;;;;5094166;28;20032;-72
2023/07/22 03:00:23;;;;;;;34.38;21.52;;;19.50;99.90;;;;;;5094254;28;20091;-68
2023/07/22 03:03:00;;;;;;;39.47;20.20;;;19.60;99.90;;;;;;5094296;28;20028;-69
2023/07/22 03:05:30;;;;;;;26.83;17.33;;;19.60;99.90;;;;;;5094344;28;20027;-69
2023/07/22 03:07:57;;;;;;;30.60;17.25;;;19.70;99.90;;;;;;5094357;28;20031;-69
2023/07/22 03:10:23;;;;;;;26.52;16.30;;;19.60;99.90;;;;;;5093995;28;20123;-69
2023/07/22 03:12:49;;;;;;;29.67;15.93;;;19.60;99.90;;;;;;5094166;28;20032;-69
2023/07/22 03:15:15;;;;;;;29.40;17.10;;;19.60;99.90;;;;;;5092819;28;20112;-68
2023/07/22 03:17:41;;;;;;;26.88;17.00;;;19.60;99.90;;;;;;5094009;28;20036;-69
2023/07/22 03:20:14;;;;;;;26.98;14.88;;;19.50;99.90;;;;;;5092801;28;20032;-68
2023/07/22 03:22:43;;;;;;;29.80;16.35;;;19.50;99.90;;;;;;5092908;28;20104;-69
2023/07/22 03:25:10;;;;;;;33.30;19.17;;;19.50;99.90;;;;;;5094265;28;20016;-69
2023/07/22 03:27:37;;;;;;;37.40;18.98;;;19.50;99.90;;;;;;5096185;28;20054;-68
2023/07/22 03:30:15;;;;;;;36.05;19.42;;;19.50;99.90;;;;;;5097591;28;20036;-69
2023/07/22 03:32:42;;;;;;;33.83;18.85;;;19.30;99.90;;;;;;5097738;28;20328;-69
2023/07/22 03:35:10;;;;;;;38.95;19.77;;;19.40;99.90;;;;;;5097867;28;20035;-68
2023/07/22 03:37:36;;;;;;;40.17;18.10;;;19.20;99.90;;;;;;5097429;28;20036;-68
2023/07/22 03:40:07;;;;;;;35.28;18.35;;;19.30;99.90;;;;;;5097553;28;20028;-69
2023/07/22 03:42:34;;;;;;;38.88;18.67;;;19.20;99.90;;;;;;5097443;28;20028;-68
2023/07/22 03:45:00;;;;;;;34.53;18.42;;;19.30;99.90;;;;;;5097352;28;20429;-69
2023/07/22 03:47:26;;;;;;;44.63;20.00;;;19.30;99.90;;;;;;5096182;28;20028;-68
2023/07/22 03:49:52;;;;;;;40.25;21.55;;;19.30;99.90;;;;;;5097221;28;20043;-68
2023/07/22 03:52:18;;;;;;;49.25;21.85;;;19.30;99.90;;;;;;5097080;28;20028;-69
2023/07/22 03:54:45;;;;;;;48.10;25.52;;;19.40;99.90;;;;;;5097230;28;20032;-69
2023/07/22 03:57:10;;;;;;;52.78;25.20;;;19.40;99.90;;;;;;5095859;28;20478;-69
2023/07/22 03:59:36;;;;;;;50.25;23.80;;;19.30;99.90;;;;;;5096992;28;20020;-69
2023/07/22 04:02:03;;;;;;;48.88;25.35;;;19.30;99.90;;;;;;5096002;28;20044;-69
2023/07/22 04:04:29;;;;;;;45.63;23.73;;;19.40;99.90;;;;;;5095604;28;20055;-68
2023/07/22 04:06:54;;;;;;;53.13;24.80;;;19.40;99.90;;;;;;5095766;28;20502;-68
2023/07/22 04:09:20;;;;;;;68.25;29.30;;;19.40;99.90;;;;;;5095669;28;20128;-68
2023/07/22 04:11:46;;;;;;;61.00;29.17;;;19.30;99.90;;;;;;5096959;28;20028;-68
2023/07/22 04:14:12;;;;;;;63.38;27.13;;;19.30;99.90;;;;;;5096824;28;20444;-68
2023/07/22 04:16:39;;;;;;;70.30;30.17;;;19.30;99.90;;;;;;5095460;28;20067;-68
2023/07/22 04:19:06;;;;;;;69.03;29.33;;;19.30;99.90;;;;;;5096588;28;20366;-68
2023/07/22 04:21:31;;;;;;;68.63;29.27;;;19.40;99.90;;;;;;5096666;28;20413;-69
2023/07/22 04:23:57;;;;;;;68.45;29.60;;;19.40;99.90;;;;;;5096625;28;20028;-68
2023/07/22 04:26:24;;;;;;;60.47;29.42;;;19.40;99.90;;;;;;5096425;28;20021;-68
2023/07/22 04:28:50;;;;;;;86.72;36.03;;;19.50;99.90;;;;;;5096328;28;20379;-69
2023/07/22 04:31:16;;;;;;;82.00;35.00;;;19.50;99.90;;;;;;5096437;28;20126;-69
2023/07/22 04:33:43;;;;;;;83.75;34.70;;;19.70;99.90;;;;;;5096368;28;20024;-69
2023/07/22 04:36:09;;;;;;;73.78;32.90;;;19.70;99.90;;;;;;5096441;28;20098;-68
2023/07/22 04:38:35;;;;;;;84.95;32.30;;;19.80;99.90;;;;;;5096334;28;20036;-69
2023/07/22 04:41:03;;;;;;;78.55;33.65;;;19.90;99.90;;;;;;5096307;28;20051;-68
2023/07/22 04:43:29;;;;;;;74.32;32.63;;;19.90;99.90;;;;;;5096331;28;20024;-68
2023/07/22 04:45:55;;;;;;;77.07;32.97;;;20.00;99.90;;;;;;5096203;28;20542;-68
2023/07/22 04:48:24;;;;;;;85.05;32.25;;;20.00;99.90;;;;;;5096071;28;20444;-69
2023/07/22 04:50:51;;;;;;;68.78;29.05;;;20.20;99.90;;;;;;5096200;28;20113;-68
2023/07/22 04:53:18;;;;;;;76.85;29.08;;;20.30;99.90;;;;;;5096082;28;20477;-68
2023/07/22 04:55:44;;;;;;;78.28;30.60;;;20.30;99.90;;;;;;5096044;28;20253;-68
2023/07/22 04:58:10;;;;;;;78.45;31.40;;;20.30;99.90;;;;;;5095965;28;20115;-68
2023/07/22 05:00:37;;;;;;;70.25;28.55;;;20.30;99.90;;;;;;5095842;28;20312;-68
2023/07/22 05:03:04;;;;;;;73.13;30.73;;;20.30;99.90;;;;;;5095952;28;20020;-68
2023/07/22 05:05:30;;;;;;;79.47;31.02;;;20.40;99.90;;;;;;5095891;28;20024;-68
2023/07/22 05:07:56;;;;;;;77.53;29.95;;;20.50;99.90;;;;;;5095814;28;20494;-68
2023/07/22 05:10:22;;;;;;;73.90;29.38;;;20.50;99.90;;;;;;5095654;28;20024;-68
2023/07/22 05:12:48;;;;;;;70.25;28.23;;;20.70;99.90;;;;;;5095687;28;20039;-68
2023/07/22 05:15:15;;;;;;;69.55;27.77;;;20.80;99.90;;;;;;5095583;28;20021;-68
2023/07/22 05:17:41;;;;;;;73.28;28.20;;;20.80;99.90;;;;;;5095543;28;20043;-68
2023/07/22 05:20:09;;;;;;;63.20;28.02;;;20.80;99.90;;;;;;5095512;28;20028;-68
2023/07/22 05:22:37;;;;;;;72.07;28.58;;;21.00;99.90;;;;;;5095464;28;20043;-68
2023/07/22 05:25:04;;;;;;;73.10;28.65;;;21.00;99.90;;;;;;5095509;28;20032;-68
2023/07/22 05:27:30;;;;;;;73.72;28.45;;;21.10;99.90;;;;;;5095311;28;20038;-68
2023/07/22 05:29:56;;;;;;;70.07;27.08;;;21.30;99.90;;;;;;5095186;28;20084;-68
2023/07/22 05:32:22;;;;;;;63.20;27.00;;;21.40;99.90;;;;;;5095252;28;20024;-69
2023/07/22 05:34:48;;;;;;;70.25;28.67;;;21.40;99.90;;;;;;5095273;28;20106;-69
2023/07/22 05:37:13;;;;;;;67.93;26.90;;;21.40;99.90;;;;;;5095193;28;20044;-69
2023/07/22 05:39:39;;;;;;;60.35;25.05;;;21.60;99.90;;;;;;5095371;28;20055;-69
2023/07/22 05:42:06;;;;;;;61.28;25.95;;;21.60;99.90;;;;;;5095223;28;20028;-69
2023/07/22 05:44:31;;;;;;;63.45;26.48;;;21.70;99.90;;;;;;5095389;28;20028;-68
2023/07/22 05:46:57;;;;;;;57.95;24.98;;;21.60;99.90;;;;;;5095105;28;20044;-69
2023/07/22 05:49:24;;;;;;;57.58;26.25;;;21.90;99.90;;;;;;5094645;28;20043;-69
2023/07/22 05:51:50;;;;;;;49.03;21.00;;;21.90;99.90;;;;;;5095024;28;20103;-69
2023/07/22 05:54:15;;;;;;;49.13;21.17;;;21.90;99.90;;;;;;5095000;28;20081;-70
2023/07/22 05:56:41;;;;;;;49.80;18.50;;;21.90;99.90;;;;;;5094923;28;20388;-69
2023/07/22 05:59:07;;;;;;;38.35;16.27;;;22.00;99.90;;;;;;5094838;28;20111;-70
2023/07/22 06:01:34;;;;;;;39.78;18.63;;;22.20;99.90;;;;;;5094879;28;20024;-69
2023/07/22 06:04:00;;;;;;;35.35;17.67;;;22.20;99.90;;;;;;5094937;28;20041;-69
2023/07/22 06:06:26;;;;;;;38.05;17.40;;;22.20;99.90;;;;;;5094716;28;20031;-70
2023/07/22 06:08:52;;;;;;;46.70;19.73;;;22.30;99.90;;;;;;5094760;28;20035;-70
2023/07/22 06:11:18;;;;;;;49.22;20.45;;;22.30;99.90;;;;;;5094709;28;20012;-70
2023/07/22 06:13:44;;;;;;;46.40;21.52;;;22.40;99.90;;;;;;5094708;28;20059;-70
2023/07/22 06:16:10;;;;;;;51.60;21.42;;;22.40;99.90;;;;;;5094755;28;20465;-70
2023/07/22 06:18:36;;;;;;;45.10;20.77;;;22.40;99.90;;;;;;5094511;28;20032;-70
2023/07/22 06:21:02;;;;;;;45.78;20.48;;;22.30;99.90;;;;;;5094496;28;20507;-70
2023/07/22 06:23:28;;;;;;;48.28;20.67;;;22.40;99.90;;;;;;5094651;28;20461;-70
2023/07/22 06:25:54;;;;;;;52.72;23.02;;;22.40;99.90;;;;;;5094415;28;20031;-70
2023/07/22 06:28:19;;;;;;;56.08;21.50;;;22.60;99.90;;;;;;5094334;28;20059;-70
2023/07/22 06:30:45;;;;;;;52.88;22.38;;;22.70;99.90;;;;;;5094560;28;20032;-71
2023/07/22 06:33:11;;;;;;;46.30;20.33;;;22.80;99.90;;;;;;5094569;28;20448;-70
2023/07/22 06:35:37;;;;;;;40.10;17.40;;;22.80;99.90;;;;;;5094379;28;20120;-71
2023/07/22 06:38:03;;;;;;;43.60;18.85;;;22.80;99.90;;;;;;5094325;28;20028;-70
2023/07/22 06:40:29;;;;;;;41.17;17.45;;;22.90;99.90;;;;;;5094417;28;20111;-70
2023/07/22 06:42:55;;;;;;;28.83;15.55;;;23.00;99.90;;;;;;5094371;28;20374;-69
2023/07/22 06:45:20;;;;;;;33.42;15.15;;;23.10;99.90;;;;;;5094419;28;20458;-70
2023/07/22 06:47:47;;;;;;;35.35;14.30;;;23.30;99.90;;;;;;5094414;28;20063;-71
2023/07/22 06:50:13;;;;;;;25.95;13.35;;;23.30;99.90;;;;;;5094376;28;20102;-70
2023/07/22 06:52:38;;;;;;;30.52;12.43;;;23.40;99.90;;;;;;5094480;28;20067;-71
2023/07/22 06:55:05;;;;;;;25.88;11.05;;;23.70;99.90;;;;;;5094265;28;20039;-70
2023/07/22 06:57:32;;;;;;;21.33;10.02;;;23.80;99.90;;;;;;5094170;28;20059;-70
2023/07/22 06:59:58;;;;;;;19.13;10.07;;;23.70;99.90;;;;;;5094265;28;20024;-70
2023/07/22 07:02:24;;;;;;;23.00;9.75;;;23.90;99.90;;;;;;5098581;28;20066;-71
2023/07/22 07:04:50;;;;;;;19.50;9.48;;;24.20;99.90;;;;;;5098180;28;20400;-70
2023/07/22 07:07:16;;;;;;;20.38;9.45;;;24.40;99.90;;;;;;5098205;28;20071;-70
2023/07/22 07:09:42;;;;;;;21.70;10.38;;;24.50;99.90;;;;;;5097954;28;20024;-70
2023/07/22 07:12:09;;;;;;;25.95;10.77;;;24.80;99.90;;;;;;5097869;28;20036;-70
2023/07/22 07:14:35;;;;;;;22.63;10.05;;;25.00;99.90;;;;;;5098093;28;20038;-70
2023/07/22 07:17:02;;;;;;;26.60;11.30;;;25.30;99.90;;;;;;5098126;28;20240;-70
2023/07/22 07:19:28;;;;;;;19.65;9.73;;;25.20;99.90;;;;;;5097816;28;20350;-70
2023/07/22 07:21:54;;;;;;;24.27;10.88;;;25.20;99.90;;;;;;5098248;28;20036;-70
2023/07/22 07:24:20;;;;;;;19.08;9.57;;;25.50;99.90;;;;;;5097716;28;20415;-70
2023/07/22 07:26:46;;;;;;;17.67;9.52;;;25.80;99.90;;;;;;5097859;28;20024;-70
2023/07/22 07:29:12;;;;;;;15.20;8.82;;;26.00;99.90;;;;;;5097731;28;20040;-70
2023/07/22 07:31:39;;;;;;;21.90;9.40;;;26.10;99.90;;;;;;5097614;28;20035;-70
2023/07/22 07:34:05;;;;;;;16.85;8.40;;;26.20;99.90;;;;;;5097535;28;20027;-71
2023/07/22 07:36:32;;;;;;;14.52;7.97;;;26.10;99.90;;;;;;5097794;28;20039;-71
2023/07/22 07:38:58;;;;;;;17.90;8.60;;;26.50;99.90;;;;;;5097445;28;20028;-70
2023/07/22 07:41:24;;;;;;;14.38;6.93;;;26.70;99.90;;;;;;5097335;28;20028;-71
2023/07/22 07:43:50;;;;;;;15.95;6.22;;;27.10;99.90;;;;;;5097506;28;20070;-71
2023/07/22 07:46:22;;;;;;;12.85;6.30;;;27.20;97.80;;;;;;5097444;28;20028;-70
2023/07/22 07:48:49;;;;;;;12.55;6.03;;;27.40;94.40;;;;;;5097185;28;20036;-70
2023/07/22 07:51:16;;;;;;;11.43;5.75;;;27.50;95.00;;;;;;5097278;28;20036;-71
2023/07/22 07:53:46;;;;;;;13.07;6.65;;;27.70;94.10;;;;;;5097148;28;20020;-70
2023/07/22 07:56:13;;;;;;;12.40;7.05;;;27.00;91.90;;;;;;5097254;28;20055;-71
2023/07/22 07:58:39;;;;;;;17.02;6.90;;;27.50;98.10;;;;;;5097125;28;20377;-70
2023/07/22 08:01:06;;;;;;;14.27;7.53;;;28.10;99.20;;;;;;5097064;28;20024;-70
2023/07/22 08:03:33;;;;;;;14.40;7.22;;;28.30;93.80;;;;;;5097070;28;20416;-71
2023/07/22 08:05:59;;;;;;;12.70;7.03;;;28.50;94.30;;;;;;5096923;28;20028;-70
2023/07/22 08:08:25;;;;;;;12.57;6.65;;;28.90;92.90;;;;;;5096931;28;20024;-71
2023/07/22 08:11:10;;;;;;;14.55;7.32;;;28.80;90.80;;;;;;5096821;28;20032;-71
2023/07/22 08:13:37;;;;;;;11.93;6.35;;;29.00;92.00;;;;;;5096806;28;20469;-71
2023/07/22 08:16:05;;;;;;;13.82;6.93;;;29.10;87.60;;;;;;5096782;28;20462;-72
2023/07/22 08:18:31;;;;;;;14.70;7.13;;;29.00;87.20;;;;;;5096657;28;20027;-71
2023/07/22 08:20:57;;;;;;;11.63;6.30;;;29.30;89.80;;;;;;5096732;28;20428;-71
2023/07/22 08:23:23;;;;;;;16.73;6.75;;;29.10;85.90;;;;;;5096677;28;20358;-71
2023/07/22 08:25:49;;;;;;;12.00;6.80;;;29.10;92.10;;;;;;5096558;28;20265;-71
2023/07/22 08:28:16;;;;;;;15.93;6.45;;;29.40;88.80;;;;;;5096378;28;20490;-72
2023/07/22 08:30:42;;;;;;;13.90;6.18;;;29.70;85.30;;;;;;5096476;28;20488;-72
2023/07/22 08:33:09;;;;;;;10.98;5.97;;;29.90;82.60;;;;;;5096411;28;20030;-72
2023/07/22 08:35:39;;;;;;;13.25;6.05;;;30.00;82.40;;;;;;5096389;28;20480;-71
2023/07/22 08:38:06;;;;;;;11.32;5.22;;;30.00;80.10;;;;;;5096256;28;20055;-72
2023/07/22 08:40:36;;;;;;;9.88;5.18;;;30.00;79.90;;;;;;5096206;28;20085;-72
2023/07/22 08:43:03;;;;;;;10.88;5.68;;;30.50;83.70;;;;;;5096282;28;20362;-72
2023/07/22 08:45:37;;;;;;;12.43;6.05;;;30.80;81.20;;;;;;5096093;28;20024;-71
2023/07/22 08:48:09;;;;;;;15.88;7.18;;;31.00;77.10;;;;;;5096176;28;20051;-73
2023/07/22 08:50:44;;;;;;;10.27;4.93;;;31.10;81.80;;;;;;5096052;28;20020;-72
2023/07/22 08:53:13;;;;;;;10.68;6.00;;;31.20;75.50;;;;;;5096065;28;20024;-74
2023/07/22 08:55:42;;;;;;;13.88;6.68;;;31.00;72.10;;;;;;5096122;28;20051;-73
2023/07/22 08:58:11;;;;;;;13.45;5.50;;;30.60;81.20;;;;;;5095925;28;20149;-71
2023/07/22 09:00:39;;;;;;;10.20;4.53;;;31.10;79.70;;;;;;5096103;28;20358;-72
2023/07/22 09:03:06;;;;;;;11.90;5.30;;;31.40;77.60;;;;;;5096025;28;20035;-73
2023/07/22 09:05:34;;;;;;;12.95;4.72;;;31.60;74.10;;;;;;5095813;28;20032;-71
2023/07/22 09:08:03;;;;;;;8.50;4.55;;;31.80;69.80;;;;;;5095726;28;20384;-72
2023/07/22 09:10:29;;;;;;;9.77;4.63;;;31.20;71.80;;;;;;5095701;28;20035;-72
2023/07/22 09:12:56;;;;;;;12.50;5.22;;;31.40;67.70;;;;;;5095656;28;20257;-74
2023/07/22 09:15:23;;;;;;;11.57;5.00;;;31.50;66.50;;;;;;5095723;28;20032;-73
2023/07/22 09:17:49;;;;;;;9.68;4.88;;;31.60;66.50;;;;;;5095453;28;20024;-74
2023/07/22 09:20:15;;;;;;;10.40;5.13;;;31.80;70.20;;;;;;5095507;28;20345;-73
2023/07/22 09:22:46;;;;;;;13.38;6.25;;;32.10;71.40;;;;;;5095241;28;20089;-72
2023/07/22 09:25:15;;;;;;;9.18;5.38;;;32.20;68.20;;;;;;5095107;28;20043;-72
2023/07/22 09:27:42;;;;;;;16.20;6.33;;;32.30;63.60;;;;;;5095250;28;20024;-71
2023/07/22 09:30:34;;;;;;;11.80;5.25;;;32.10;66.00;;;;;;5095333;28;20295;-72
2023/07/22 09:33:02;;;;;;;13.90;6.55;;;32.40;63.70;;;;;;5095459;28;20077;-73
2023/07/22 09:35:43;;;;;;;9.55;5.40;;;32.00;64.20;;;;;;5095217;28;20028;-72
2023/07/22 09:38:09;;;;;;;10.38;4.90;;;32.00;64.20;;;;;;5095240;28;20032;-74
2023/07/22 09:40:35;;;;;;;13.05;5.65;;;31.70;66.30;;;;;;5095009;28;20032;-72
2023/07/22 09:43:02;;;;;;;15.57;6.05;;;31.10;65.20;;;;;;5095082;28;20047;-73
2023/07/22 09:45:31;;;;;;;11.43;5.63;;;30.90;68.90;;;;;;5095159;28;20424;-73
2023/07/22 09:47:58;;;;;;;14.82;5.70;;;30.60;70.40;;;;;;5095019;28;20035;-72
2023/07/22 09:50:26;;;;;;;10.50;4.85;;;30.50;70.60;;;;;;5095084;28;20036;-72
2023/07/22 09:52:54;;;;;;;11.13;5.88;;;30.60;78.80;;;;;;5095014;28;20036;-73
2023/07/22 09:55:21;;;;;;;10.50;5.13;;;30.80;70.10;;;;;;5094886;28;20016;-72
2023/07/22 09:57:58;;;;;;;10.93;6.72;;;30.80;69.20;;;;;;5094964;28;20023;-72
2023/07/22 10:00:27;;;;;;;9.18;4.50;;;31.00;69.10;;;;;;5094969;28;20472;-73
2023/07/22 10:02:56;;;;;;;12.43;5.22;;;31.40;76.80;;;;;;5095031;28;20028;-73
2023/07/22 10:05:22;;;;;;;7.00;3.88;;;31.10;69.20;;;;;;5095024;28;20202;-72
2023/07/22 10:07:52;;;;;;;9.18;4.20;;;30.80;66.20;;;;;;5094809;28;20063;-73
2023/07/22 10:10:40;;;;;;;7.03;4.13;;;30.80;68.00;;;;;;5094635;28;20085;-72
2023/07/22 10:13:07;;;;;;;7.97;4.82;;;30.50;68.00;;;;;;5094071;28;20043;-72
2023/07/22 10:15:34;;;;;;;6.78;3.80;;;30.00;74.80;;;;;;5094651;28;20020;-72
2023/07/22 10:18:04;;;;;;;7.07;3.67;;;29.60;68.50;;;;;;5094591;28;20032;-71
2023/07/22 10:20:34;;;;;;;10.63;4.30;;;29.50;69.80;;;;;;5094564;28;20025;-72
2023/07/22 10:23:01;;;;;;;9.63;3.93;;;29.50;71.50;;;;;;5094661;28;20016;-72
2023/07/22 10:25:27;;;;;;;6.22;3.40;;;29.40;77.50;;;;;;5094448;28;20321;-72
2023/07/22 10:27:54;;;;;;;8.27;4.07;;;29.40;74.90;;;;;;5094421;28;20485;-72
2023/07/22 10:30:20;;;;;;;6.28;3.75;;;29.50;77.10;;;;;;5094520;28;20397;-72
2023/07/22 10:32:54;;;;;;;5.85;3.40;;;29.40;75.70;;;;;;5094533;28;20028;-71
2023/07/22 10:35:32;;;;;;;8.20;4.13;;;29.60;71.80;;;;;;5096729;28;20393;-71
2023/07/22 10:38:11;;;;;;;5.78;3.38;;;29.80;69.90;;;;;;5098603;28;20109;-72
2023/07/22 10:40:49;;;;;;;11.27;4.32;;;29.80;79.00;;;;;;5098749;28;20027;-72
2023/07/22 10:43:19;;;;;;;9.00;3.80;;;29.90;74.90;;;;;;5098640;28;20055;-71
2023/07/22 10:45:53;;;;;;;7.68;4.15;;;29.60;74.00;;;;;;5098489;28;20028;-72
2023/07/22 10:48:20;;;;;;;10.13;4.30;;;29.70;73.90;;;;;;5098433;28;20457;-71
2023/07/22 10:50:54;;;;;;;11.63;4.20;;;29.60;72.00;;;;;;5098608;28;20024;-71
2023/07/22 10:53:24;;;;;;;9.43;4.10;;;29.70;70.30;;;;;;5098584;28;20032;-71
2023/07/22 10:56:17;;;;;;;13.25;4.45;;;30.40;74.80;;;;;;5098354;28;20036;-71
2023/07/22 10:58:46;;;;;;;11.23;4.43;;;30.80;69.10;;;;;;5098252;28;20032;-71
2023/07/22 11:01:43;;;;;;;12.88;4.93;;;30.80;71.20;;;;;;5098169;28;20032;-71
2023/07/22 11:04:16;;;;;;;10.45;4.93;;;31.40;65.60;;;;;;5097798;28;20065;-71
2023/07/22 11:06:47;;;;;;;11.18;4.93;;;31.90;64.00;;;;;;5098065;28;20427;-71
2023/07/22 11:09:29;;;;;;;16.20;5.25;;;32.00;64.60;;;;;;5097952;28;20035;-71
2023/07/22 11:12:06;;;;;;;7.18;3.95;;;32.20;67.40;;;;;;5098090;28;20550;-71
2023/07/22 11:14:39;;;;;;;11.85;4.88;;;32.90;70.80;;;;;;5097905;28;20044;-71
2023/07/22 11:17:08;;;;;;;8.40;4.15;;;33.20;60.80;;;;;;5097887;28;20024;-71
2023/07/22 11:19:34;;;;;;;7.60;4.18;;;33.20;59.70;;;;;;5097813;28;20032;-72
2023/07/22 11:22:01;;;;;;;9.98;4.60;;;33.50;61.00;;;;;;5098037;28;20082;-71
2023/07/22 11:24:27;;;;;;;8.07;4.60;;;33.60;59.50;;;;;;5097909;28;20032;-70
2023/07/22 11:26:53;;;;;;;6.88;4.40;;;33.30;54.20;;;;;;5097736;28;20031;-72
2023/07/22 11:29:20;;;;;;;7.32;4.72;;;33.50;57.10;;;;;;5097363;28;20468;-71
2023/07/22 11:31:47;;;;;;;10.30;5.22;;;33.40;55.90;;;;;;5097832;28;20032;-72
2023/07/22 11:34:14;;;;;;;14.50;5.45;;;33.50;55.90;;;;;;5097661;28;20056;-71
2023/07/22 11:36:41;;;;;;;7.88;5.25;;;32.80;56.90;;;;;;5097643;28;20028;-72
2023/07/22 11:39:14;;;;;;;8.77;5.80;;;32.90;59.00;;;;;;5097497;28;20023;-70
2023/07/22 11:41:44;;;;;;;9.15;5.45;;;33.40;58.20;;;;;;5097584;28;20117;-70
2023/07/22 11:44:13;;;;;;;10.18;6.65;;;33.30;52.60;;;;;;5097445;28;20492;-72
2023/07/22 11:47:08;;;;;;;9.50;7.30;;;32.60;59.20;;;;;;5096768;28;20297;-72
2023/07/22 11:49:48;;;;;;;9.55;6.13;;;32.80;60.80;;;;;;5095878;28;20051;-71
2023/07/22 11:52:17;;;;;;;14.90;7.68;;;32.90;54.20;;;;;;5097287;28;20020;-70
2023/07/22 11:54:45;;;;;;;8.60;5.72;;;32.80;54.90;;;;;;5097490;28;20073;-70
2023/07/22 11:57:11;;;;;;;9.02;5.45;;;32.80;56.40;;;;;;5097148;28;20040;-71
2023/07/22 11:59:44;;;;;;;7.93;6.15;;;33.10;55.50;;;;;;5096933;28;20035;-71
2023/07/22 12:02:17;;;;;;;8.65;6.30;;;33.20;57.40;;;;;;5097013;28;20050;-71
2023/07/22 12:04:50;;;;;;;14.55;5.90;;;33.40;57.30;;;;;;5096892;28;20056;-71
2023/07/22 12:07:29;;;;;;;9.75;6.47;;;33.50;54.80;;;;;;5097019;28;20040;-72
2023/07/22 12:10:00;;;;;;;7.75;4.88;;;33.30;58.00;;;;;;5096879;28;20481;-71
2023/07/22 12:12:49;;;;;;;10.35;5.13;;;32.60;56.10;;;;;;5096946;28;20035;-71
2023/07/22 12:15:17;;;;;;;8.32;4.65;;;33.00;56.60;;;;;;5096940;28;20059;-72
2023/07/22 12:17:57;;;;;;;8.05;5.15;;;32.60;57.70;;;;;;5096732;28;20032;-72
2023/07/22 12:20:28;;;;;;;13.52;5.78;;;32.70;59.50;;;;;;5096817;28;20032;-72
2023/07/22 12:22:54;;;;;;;8.13;5.35;;;32.30;63.90;;;;;;5096748;28;20055;-72
2023/07/22 12:25:20;;;;;;;8.18;5.40;;;31.70;59.70;;;;;;5096552;28;20028;-72
2023/07/22 12:27:46;;;;;;;8.70;5.50;;;31.80;61.60;;;;;;5096241;28;20028;-72
2023/07/22 12:30:12;;;;;;;10.02;6.15;;;32.20;60.80;;;;;;5096554;28;20035;-72
2023/07/22 12:32:39;;;;;;;9.07;5.32;;;32.70;57.60;;;;;;5096340;28;20027;-72
2023/07/22 12:35:05;;;;;;;12.35;6.05;;;33.10;57.60;;;;;;5096553;28;20024;-71
2023/07/22 12:37:31;;;;;;;8.93;5.90;;;33.60;57.80;;;;;;5096498;28;20028;-72